< Typhoon 200910 2009 Season Typhoon 200912 >
Typhoon 200911 (KROVANH)
General InformationTrack Information on Google MapsDetailed Wind InformationAccess Analytics MapList of All Images || NewsDisaster Info.WeblogTrackbackTyphoon FrontTyphoon ImaginationResourceGoogle EarthGE AnimationAtom FeedGeoJSON
Detalied Best Track (Time Zone = UTC)
Year Month Day Hour Lat. Long. Pressure (hPa) Wind (kt) Class Image Chart
2009 8 28 00 21.4 149.1 1002 0 2 Image Chart
2009 8 28 06 22.6 149.1 1002 0 2 Image Chart
2009 8 28 12 23.8 149.0 998 35 3 Image Chart
2009 8 28 18 25.0 148.7 996 35 3 Image Chart
2009 8 29 00 26.3 147.8 994 40 3 Image Chart
2009 8 29 06 27.4 146.9 992 40 3 Image Chart
2009 8 29 12 28.6 146.0 990 45 3 Image Chart
2009 8 29 18 29.9 144.5 985 50 4 Image Chart
2009 8 30 00 30.6 142.5 985 50 4 Image Chart
2009 8 30 06 31.1 141.0 980 55 4 Image Chart
2009 8 30 09 31.4 140.8 980 55 4 Image Chart
2009 8 30 12 31.8 140.6 980 55 4 Image Chart
2009 8 30 15 32.1 140.3 980 55 4 Image Chart
2009 8 30 18 32.7 140.0 975 60 4 Image Chart
2009 8 30 21 33.1 139.9 975 60 4 Image Chart
2009 8 31 00 33.5 139.9 975 60 4 Image Chart
2009 8 31 03 34.0 139.9 980 55 4 Image Chart
2009 8 31 06 34.6 140.5 980 55 4 Image Chart
2009 8 31 09 35.4 141.0 980 55 4 Image Chart
2009 8 31 12 36.4 141.5 985 50 4 Image Chart
2009 8 31 15 37.2 142.1 985 50 4 Image Chart
2009 8 31 18 38.3 142.9 985 50 4 Image Chart
2009 8 31 21 39.4 143.8 990 45 3 Image Chart
2009 9 1 00 40.3 144.6 992 45 3 Image Chart
2009 9 1 06 42.2 146.3 994 45 3 Image Chart
2009 9 1 12 42.9 148.2 996 0 6 Image Chart
2009 9 1 18 43.3 150.3 1000 0 6 Image Chart
2009 9 2 00 43.5 152.8 1000 0 6 Image Chart
2009 9 2 06 43.4 155.6 1004 0 6 Image Chart
Japan Meteorological Agency Best Track Data | Correction Date : 2009-11-02
< Typhoon 200910 2009 Season Typhoon 200912 >

Help